createdAt,value
2018-02-07T00:01:10.452Z,-1.70
2018-02-07T00:03:38.721Z,-1.70
2018-02-07T00:06:06.246Z,-1.70
2018-02-07T00:08:33.746Z,-1.70
2018-02-07T00:11:01.266Z,-1.70
2018-02-07T00:13:28.761Z,-1.70
2018-02-07T00:15:56.258Z,-1.70
2018-02-07T00:18:23.777Z,-1.80
2018-02-07T00:20:51.274Z,-1.80
2018-02-07T00:23:18.793Z,-1.80
2018-02-07T00:25:46.286Z,-1.80
2018-02-07T00:28:13.800Z,-1.90
2018-02-07T00:30:41.298Z,-1.90
2018-02-07T00:33:08.793Z,-1.90
2018-02-07T00:35:36.318Z,-1.90
2018-02-07T00:38:03.817Z,-1.90
2018-02-07T00:40:31.341Z,-2.00
2018-02-07T00:42:58.839Z,-1.90
2018-02-07T00:45:26.362Z,-1.90
2018-02-07T00:47:53.858Z,-1.90
2018-02-07T00:50:21.379Z,-1.90
2018-02-07T00:52:48.877Z,-1.90
2018-02-07T00:55:16.377Z,-1.90
2018-02-07T00:57:43.898Z,-1.90
2018-02-07T01:00:12.157Z,-2.00
2018-02-07T01:02:39.674Z,-2.00
2018-02-07T01:05:07.170Z,-2.00
2018-02-07T01:07:34.686Z,-2.10
2018-02-07T01:10:02.954Z,-2.10
2018-02-07T01:12:31.241Z,-2.10
2018-02-07T01:14:58.737Z,-2.20
2018-02-07T01:17:26.233Z,-2.10
2018-02-07T01:19:53.749Z,-2.10
2018-02-07T01:22:21.249Z,-2.20
2018-02-07T01:24:48.773Z,-2.20
2018-02-07T01:27:16.277Z,-2.10
2018-02-07T01:29:44.562Z,-2.10
2018-02-07T01:32:12.826Z,-2.20
2018-02-07T01:34:41.090Z,-2.20
2018-02-07T01:37:08.613Z,-2.20
2018-02-07T01:39:36.110Z,-2.20
2018-02-07T01:42:03.629Z,-2.30
2018-02-07T01:44:31.125Z,-2.30
2018-02-07T01:46:59.018Z,-2.30
2018-02-07T01:49:26.514Z,-2.30
2018-02-07T01:51:54.009Z,-2.40
2018-02-07T01:54:21.531Z,-2.40
2018-02-07T01:56:49.026Z,-2.40
2018-02-07T01:59:16.546Z,-2.50
2018-02-07T02:01:44.049Z,-2.50
2018-02-07T02:04:12.334Z,-2.50
2018-02-07T02:06:40.594Z,-2.60
2018-02-07T02:09:08.094Z,-2.60
2018-02-07T02:11:35.609Z,-2.60
2018-02-07T02:14:03.110Z,-2.60
2018-02-07T02:16:30.630Z,-2.60
2018-02-07T02:18:58.126Z,-2.60
2018-02-07T02:21:25.641Z,-2.60
2018-02-07T02:23:53.137Z,-2.70
2018-02-07T02:26:20.657Z,-2.70
2018-02-07T02:28:48.154Z,-2.70
2018-02-07T02:31:15.665Z,-2.70
2018-02-07T02:33:43.185Z,-2.70
2018-02-07T02:36:22.539Z,-2.70
2018-02-07T02:38:50.058Z,-2.70
2018-02-07T02:41:17.558Z,-2.70
2018-02-07T02:43:45.077Z,-2.70
2018-02-07T02:46:12.577Z,-2.70
2018-02-07T02:48:40.073Z,-2.70
2018-02-07T02:51:08.357Z,-2.70
2018-02-07T02:53:36.618Z,-2.70
2018-02-07T02:56:04.138Z,-2.70
2018-02-07T02:58:31.642Z,-2.70
2018-02-07T03:00:59.926Z,-2.80
2018-02-07T03:03:28.185Z,-2.80
2018-02-07T03:05:55.710Z,-2.80
2018-02-07T03:08:23.210Z,-2.70
2018-02-07T03:10:51.475Z,-2.80
2018-02-07T03:13:18.994Z,-2.80
2018-02-07T03:15:46.498Z,-2.70
2018-02-07T03:18:14.217Z,-2.70
2018-02-07T03:20:41.706Z,-2.70
2018-02-07T03:23:09.222Z,-2.70
2018-02-07T03:25:36.717Z,-2.70
2018-02-07T03:28:04.237Z,-2.80
2018-02-07T03:30:31.732Z,-2.80
2018-02-07T03:32:59.237Z,-2.80
2018-02-07T03:35:26.758Z,-2.80
2018-02-07T03:37:54.253Z,-2.80
2018-02-07T03:40:21.773Z,-2.80
2018-02-07T03:42:49.269Z,-2.80
2018-02-07T03:45:16.786Z,-2.80
2018-02-07T03:47:44.291Z,-2.80
2018-02-07T03:50:11.826Z,-2.90
2018-02-07T03:52:40.086Z,-2.90
2018-02-07T03:55:07.605Z,-2.90
2018-02-07T03:57:35.101Z,-2.90
2018-02-07T04:00:02.621Z,-2.90
2018-02-07T04:02:30.118Z,-2.90
2018-02-07T04:04:57.614Z,-2.90
2018-02-07T04:07:25.134Z,-2.90
2018-02-07T04:09:52.629Z,-2.90
2018-02-07T04:12:20.149Z,-3.00
2018-02-07T04:14:47.648Z,-3.00
2018-02-07T04:17:15.170Z,-3.00
2018-02-07T04:19:42.666Z,-3.00
2018-02-07T04:22:10.181Z,-3.10
2018-02-07T04:24:37.677Z,-3.10
2018-02-07T04:27:05.938Z,-3.00
2018-02-07T04:29:34.222Z,-3.10
2018-02-07T04:32:02.486Z,-3.10
2018-02-07T04:34:30.774Z,-3.10
2018-02-07T04:36:59.042Z,-3.10
2018-02-07T04:39:27.326Z,-3.10
2018-02-07T04:41:55.590Z,-3.20
2018-02-07T04:44:23.109Z,-3.20
2018-02-07T04:46:50.605Z,-3.20
2018-02-07T04:49:18.101Z,-3.20
2018-02-07T04:51:45.621Z,-3.20
2018-02-07T04:54:13.886Z,-3.20
2018-02-07T04:56:41.406Z,-3.20
2018-02-07T04:59:08.898Z,-3.20
2018-02-07T05:01:36.418Z,-3.20
2018-02-07T05:04:03.922Z,-3.20
2018-02-07T05:06:31.446Z,-3.20
2018-02-07T05:08:58.950Z,-3.20
2018-02-07T05:11:26.446Z,-3.20
2018-02-07T05:13:53.969Z,-3.20
2018-02-07T05:16:22.229Z,-3.20
2018-02-07T05:18:49.750Z,-3.20
2018-02-07T05:21:17.246Z,-3.30
2018-02-07T05:23:44.765Z,-3.30
2018-02-07T05:26:12.262Z,-3.20
2018-02-07T05:28:39.786Z,-3.30
2018-02-07T05:31:07.281Z,-3.30
2018-02-07T05:33:34.872Z,-3.30
2018-02-07T05:36:02.347Z,-3.30
2018-02-07T05:38:29.853Z,-3.30
2018-02-07T05:40:57.611Z,-3.30
2018-02-07T05:43:25.110Z,-3.30
2018-02-07T05:45:53.394Z,-3.30
2018-02-07T05:48:20.889Z,-3.30
2018-02-07T05:50:48.410Z,-3.30
2018-02-07T05:53:15.929Z,-3.30
2018-02-07T05:55:43.449Z,-3.30
2018-02-07T05:58:10.946Z,-3.30
2018-02-07T06:00:38.441Z,-3.30
2018-02-07T06:03:05.968Z,-3.30
2018-02-07T06:05:33.466Z,-3.30
2018-02-07T06:08:00.982Z,-3.30
2018-02-07T06:10:28.487Z,-3.30
2018-02-07T06:12:56.014Z,-3.40
2018-02-07T06:15:24.276Z,-3.40
2018-02-07T06:17:51.774Z,-3.40
2018-02-07T06:20:19.293Z,-3.40
2018-02-07T06:22:46.789Z,-3.40
2018-02-07T06:25:14.309Z,-3.40
2018-02-07T06:27:41.810Z,-3.40
2018-02-07T06:30:09.334Z,-3.40
2018-02-07T06:32:36.830Z,-3.40
2018-02-07T06:35:04.327Z,-3.40
2018-02-07T06:37:31.846Z,-3.40
2018-02-07T06:39:59.342Z,-3.40
2018-02-07T06:42:26.862Z,-3.40
2018-02-07T06:44:54.361Z,-3.40
2018-02-07T06:47:21.881Z,-3.40
2018-02-07T06:49:50.146Z,-3.30
2018-02-07T06:52:17.640Z,-3.40
2018-02-07T06:54:45.926Z,-3.40
2018-02-07T06:57:13.426Z,-3.30
2018-02-07T06:59:42.497Z,-3.40
2018-02-07T07:02:10.003Z,-3.40
2018-02-07T07:04:37.526Z,-3.40
2018-02-07T07:07:05.026Z,-3.30
2018-02-07T07:09:32.521Z,-3.30
2018-02-07T07:12:00.046Z,-3.30
2018-02-07T07:14:27.545Z,-3.20
2018-02-07T07:16:55.070Z,-3.30
2018-02-07T07:19:22.565Z,-3.30
2018-02-07T07:21:50.083Z,-3.30
2018-02-07T07:24:17.581Z,-3.30
2018-02-07T07:26:45.083Z,-3.20
2018-02-07T07:29:12.601Z,-3.20
2018-02-07T07:31:40.104Z,-3.20
2018-02-07T07:34:07.625Z,-3.20
2018-02-07T07:36:35.121Z,-3.20
2018-02-07T07:39:02.641Z,-3.10
2018-02-07T07:41:30.138Z,-3.10
2018-02-07T07:43:57.657Z,-3.10
2018-02-07T07:46:25.150Z,-3.20
2018-02-07T07:48:52.649Z,-3.10
2018-02-07T07:51:20.172Z,-3.00
2018-02-07T07:53:47.665Z,-3.00
2018-02-07T07:56:15.188Z,-3.00
2018-02-07T07:58:42.685Z,-3.00
2018-02-07T08:01:10.202Z,-2.90
2018-02-07T08:03:37.697Z,-2.90
2018-02-07T08:06:05.219Z,-2.90
2018-02-07T08:08:32.722Z,-2.80
2018-02-07T08:11:00.229Z,-2.70
2018-02-07T08:13:27.754Z,-2.70
2018-02-07T08:15:55.250Z,-2.70
2018-02-07T08:18:22.770Z,-2.70
2018-02-07T08:20:50.265Z,-2.60
2018-02-07T08:23:17.786Z,-2.60
2018-02-07T08:25:45.282Z,-2.50
2018-02-07T08:28:12.802Z,-2.40
2018-02-07T08:30:40.298Z,-2.20
2018-02-07T08:33:07.802Z,-2.10
2018-02-07T08:35:35.322Z,-1.90
2018-02-07T08:38:02.817Z,-1.70
2018-02-07T08:40:30.338Z,-1.50
2018-02-07T08:42:57.836Z,-1.30
2018-02-07T08:45:25.357Z,-1.10
2018-02-07T08:47:52.853Z,-0.80
2018-02-07T08:50:20.379Z,-0.60
2018-02-07T08:52:47.874Z,-0.30
2018-02-07T08:55:15.369Z,-0.10
2018-02-07T08:57:43.654Z,0.80
2018-02-07T09:00:11.151Z,0.80
2018-02-07T09:02:38.674Z,1.50
2018-02-07T09:05:06.169Z,2.40
2018-02-07T09:07:33.690Z,3.40
2018-02-07T09:10:01.186Z,4.30
2018-02-07T09:12:28.702Z,5.40
2018-02-07T09:14:56.194Z,6.30
2018-02-07T09:17:23.685Z,7.00
2018-02-07T09:19:51.202Z,8.00
2018-02-07T09:22:18.689Z,8.80
2018-02-07T09:24:46.209Z,10.10
2018-02-07T09:27:13.706Z,11.10
2018-02-07T09:29:41.226Z,12.00
2018-02-07T09:32:08.726Z,13.30
2018-02-07T09:34:36.246Z,14.50
2018-02-07T09:37:03.741Z,14.70
2018-02-07T09:39:31.243Z,14.90
2018-02-07T09:41:58.762Z,14.80
2018-02-07T09:44:26.262Z,15.20
2018-02-07T09:46:53.781Z,15.40
2018-02-07T09:49:21.282Z,14.90
2018-02-07T09:51:48.816Z,13.70
2018-02-07T09:54:17.082Z,12.20
2018-02-07T09:56:46.105Z,11.50
2018-02-07T09:59:14.365Z,11.30
2018-02-07T10:01:42.630Z,10.90
2018-02-07T10:04:10.149Z,10.90
2018-02-07T10:06:37.650Z,10.90
2018-02-07T10:09:05.178Z,11.30
2018-02-07T10:11:32.674Z,11.60
2018-02-07T10:14:00.958Z,11.20
2018-02-07T10:16:29.218Z,11.60
2018-02-07T10:18:56.742Z,11.50
2018-02-07T10:21:24.242Z,11.90
2018-02-07T10:23:52.509Z,12.40
2018-02-07T10:26:20.025Z,12.40
2018-02-07T10:28:47.529Z,12.20
2018-02-07T10:31:15.047Z,12.00
2018-02-07T10:33:42.546Z,11.70
2018-02-07T10:36:10.062Z,10.60
2018-02-07T10:38:37.582Z,10.00
2018-02-07T10:41:05.866Z,9.40
2018-02-07T10:43:33.358Z,9.40
2018-02-07T10:46:00.850Z,9.40
2018-02-07T10:48:28.368Z,8.80
2018-02-07T10:50:55.857Z,8.50
2018-02-07T10:53:23.375Z,8.40
2018-02-07T10:55:50.869Z,8.50
2018-02-07T10:58:18.401Z,8.80
2018-02-07T11:00:45.896Z,9.10
2018-02-07T11:03:13.413Z,9.50
2018-02-07T11:05:40.906Z,9.90
2018-02-07T11:08:08.405Z,10.50
2018-02-07T11:10:35.924Z,11.00
2018-02-07T11:13:03.426Z,11.80
2018-02-07T11:15:30.945Z,12.00
2018-02-07T11:17:58.441Z,12.70
2018-02-07T11:20:25.962Z,13.40
2018-02-07T11:22:53.466Z,13.90
2018-02-07T11:25:20.985Z,14.20
2018-02-07T11:27:48.482Z,14.30
2018-02-07T11:30:15.978Z,14.70
2018-02-07T11:32:43.499Z,14.30
2018-02-07T11:35:10.998Z,14.00
2018-02-07T11:37:38.518Z,14.10
2018-02-07T11:40:06.014Z,13.80
2018-02-07T11:42:33.542Z,13.80
2018-02-07T11:45:01.043Z,13.70
2018-02-07T11:47:29.370Z,13.60
2018-02-07T11:49:56.865Z,13.60
2018-02-07T11:52:24.361Z,13.10
2018-02-07T11:54:52.645Z,12.60
2018-02-07T11:57:20.920Z,12.70
2018-02-07T11:59:49.206Z,12.20
2018-02-07T12:02:16.702Z,12.20
2018-02-07T12:04:44.222Z,12.00
2018-02-07T12:07:11.717Z,11.70
2018-02-07T12:09:39.241Z,11.50
2018-02-07T12:12:06.738Z,11.50
2018-02-07T12:14:34.233Z,11.40
2018-02-07T12:17:01.754Z,11.10
2018-02-07T12:19:29.250Z,10.90
2018-02-07T12:21:57.548Z,10.70
2018-02-07T12:24:25.687Z,10.70
2018-02-07T12:26:53.214Z,10.70
2018-02-07T12:29:20.726Z,10.80
2018-02-07T12:31:49.022Z,10.90
2018-02-07T12:34:16.536Z,10.80
2018-02-07T12:36:44.047Z,10.70
2018-02-07T12:39:11.582Z,10.70
2018-02-07T12:41:39.860Z,10.80
2018-02-07T12:44:07.400Z,10.80
2018-02-07T12:46:34.916Z,10.80
2018-02-07T12:49:02.452Z,10.60
2018-02-07T12:51:29.960Z,10.60
2018-02-07T12:53:57.491Z,10.50
2018-02-07T12:56:24.994Z,10.50
2018-02-07T12:58:52.495Z,10.50
2018-02-07T13:01:20.032Z,10.50
2018-02-07T13:03:47.539Z,10.50
2018-02-07T13:06:16.710Z,10.00
2018-02-07T13:08:44.218Z,10.00
2018-02-07T13:11:11.729Z,9.90
2018-02-07T13:13:39.222Z,9.50
2018-02-07T13:16:06.738Z,9.40
2018-02-07T13:18:34.234Z,9.30
2018-02-07T13:21:01.730Z,9.10
2018-02-07T13:23:30.017Z,9.10
2018-02-07T13:25:58.274Z,9.30
2018-02-07T13:28:26.562Z,9.50
2018-02-07T13:30:54.823Z,9.90
2018-02-07T13:33:22.337Z,9.80
2018-02-07T13:35:49.834Z,10.00
2018-02-07T13:38:17.357Z,9.70
2018-02-07T13:40:44.859Z,9.80
2018-02-07T13:43:12.377Z,9.60
2018-02-07T13:45:39.876Z,9.60
2018-02-07T13:48:07.367Z,9.70
2018-02-07T13:50:34.889Z,9.70
2018-02-07T13:53:02.377Z,9.70
2018-02-07T13:55:29.890Z,9.60
2018-02-07T13:57:57.386Z,9.70
2018-02-07T14:00:25.670Z,9.40
2018-02-07T14:02:53.161Z,9.40
2018-02-07T14:05:20.686Z,9.30
2018-02-07T14:07:48.178Z,9.20
2018-02-07T14:10:15.698Z,9.10
2018-02-07T14:12:43.957Z,9.00
2018-02-07T14:15:12.213Z,9.00
2018-02-07T14:17:39.722Z,8.90
2018-02-07T14:20:07.215Z,8.80
2018-02-07T14:22:35.498Z,8.80
2018-02-07T14:25:02.990Z,8.70
2018-02-07T14:27:31.269Z,8.40
2018-02-07T14:29:59.526Z,8.30
2018-02-07T14:32:27.042Z,8.30
2018-02-07T14:34:54.553Z,8.20
2018-02-07T14:37:22.840Z,7.90
2018-02-07T14:39:51.094Z,7.80
2018-02-07T14:42:18.590Z,7.80
2018-02-07T14:44:46.105Z,7.70
2018-02-07T14:47:13.597Z,7.40
2018-02-07T14:49:42.578Z,7.20
2018-02-07T14:52:10.842Z,7.00
2018-02-07T14:54:38.370Z,7.00
2018-02-07T14:57:05.862Z,6.90
2018-02-07T14:59:33.378Z,6.80
2018-02-07T15:02:00.865Z,6.80
2018-02-07T15:04:28.386Z,6.70
2018-02-07T15:06:55.886Z,6.60
2018-02-07T15:09:23.381Z,6.50
2018-02-07T15:11:51.662Z,6.30
2018-02-07T15:14:19.157Z,6.20
2018-02-07T15:16:46.678Z,6.20
2018-02-07T15:19:14.174Z,6.10
2018-02-07T15:21:41.690Z,5.80
2018-02-07T15:24:09.958Z,5.70
2018-02-07T15:26:38.241Z,5.60
2018-02-07T15:29:06.501Z,5.50
2018-02-07T15:31:34.022Z,5.50
2018-02-07T15:34:01.511Z,5.30
2018-02-07T15:36:28.997Z,5.20
2018-02-07T15:38:57.278Z,5.10
2018-02-07T15:41:24.773Z,5.10
2018-02-07T15:43:52.282Z,5.00
2018-02-07T15:46:20.542Z,4.90
2018-02-07T15:48:48.064Z,4.80
2018-02-07T15:51:15.558Z,4.80
2018-02-07T15:53:43.074Z,4.80
2018-02-07T15:56:10.569Z,4.70
2018-02-07T15:58:38.066Z,4.60
2018-02-07T16:01:05.577Z,4.50
2018-02-07T16:03:33.066Z,4.40
2018-02-07T16:06:01.346Z,4.20
2018-02-07T16:08:29.610Z,4.10
2018-02-07T16:10:57.894Z,4.10
2018-02-07T16:13:26.156Z,4.00
2018-02-07T16:15:53.669Z,4.00
2018-02-07T16:18:21.166Z,4.00
2018-02-07T16:20:48.658Z,3.90
2018-02-07T16:23:16.174Z,3.90
2018-02-07T16:25:43.670Z,3.90
2018-02-07T16:28:11.954Z,3.70
2018-02-07T16:30:39.445Z,3.70
2018-02-07T16:33:06.962Z,3.60
2018-02-07T16:35:34.459Z,3.50
2018-02-07T16:38:01.974Z,3.50
2018-02-07T16:40:30.233Z,3.30
2018-02-07T16:42:57.753Z,3.30
2018-02-07T16:45:25.249Z,3.30
2018-02-07T16:47:52.770Z,3.20
2018-02-07T16:50:20.262Z,3.20
2018-02-07T16:52:47.754Z,3.10
2018-02-07T16:55:15.271Z,3.00
2018-02-07T16:57:42.766Z,2.80
2018-02-07T17:00:11.050Z,2.70
2018-02-07T17:02:38.561Z,2.70
2018-02-07T17:05:06.078Z,2.70
2018-02-07T17:07:33.574Z,2.60
2018-02-07T17:10:01.090Z,2.60
2018-02-07T17:12:28.585Z,2.60
2018-02-07T17:14:56.077Z,2.60
2018-02-07T17:17:24.363Z,2.50
2018-02-07T17:19:52.625Z,2.50
2018-02-07T17:22:20.141Z,2.50
2018-02-07T17:24:47.638Z,2.50
2018-02-07T17:27:15.154Z,2.50
2018-02-07T17:29:42.641Z,2.50
2018-02-07T17:32:10.154Z,2.50
2018-02-07T17:34:37.654Z,2.50
2018-02-07T17:37:05.145Z,2.50
2018-02-07T17:39:33.421Z,2.50
2018-02-07T17:42:01.682Z,2.50
2018-02-07T17:44:29.225Z,2.50
2018-02-07T17:46:56.716Z,2.50
2018-02-07T17:49:25.009Z,2.40
2018-02-07T17:51:52.509Z,2.40
2018-02-07T17:54:20.031Z,2.30
2018-02-07T17:56:47.526Z,2.30
2018-02-07T17:59:15.018Z,2.20
2018-02-07T18:01:43.302Z,2.20
2018-02-07T18:04:11.568Z,2.20
2018-02-07T18:06:39.845Z,2.20
2018-02-07T18:09:08.106Z,2.20
2018-02-07T18:11:35.621Z,2.20
2018-02-07T18:14:03.117Z,2.10
2018-02-07T18:16:30.639Z,2.10
2018-02-07T18:18:58.137Z,2.10
2018-02-07T18:21:25.634Z,2.10
2018-02-07T18:23:53.165Z,2.10
2018-02-07T18:26:21.429Z,2.10
2018-02-07T18:28:48.942Z,2.00
2018-02-07T18:31:16.438Z,2.00
2018-02-07T18:33:43.949Z,2.00
2018-02-07T18:36:11.442Z,2.00
2018-02-07T18:38:38.957Z,2.00
2018-02-07T18:41:07.218Z,1.90
2018-02-07T18:43:35.473Z,1.90
2018-02-07T18:46:02.993Z,1.90
2018-02-07T18:48:30.485Z,1.90
2018-02-07T18:50:58.004Z,1.90
2018-02-07T18:53:25.505Z,1.90
2018-02-07T18:55:53.021Z,1.90
2018-02-07T18:58:20.518Z,1.90
2018-02-07T19:00:48.042Z,1.90
2018-02-07T19:03:15.543Z,1.90
2018-02-07T19:05:43.037Z,1.90
2018-02-07T19:08:10.578Z,1.90
2018-02-07T19:10:38.838Z,1.90
2018-02-07T19:13:06.353Z,1.90
2018-02-07T19:15:33.845Z,1.90
2018-02-07T19:18:01.362Z,1.80
2018-02-07T19:20:28.854Z,1.80
2018-02-07T19:22:56.341Z,1.80
2018-02-07T19:25:24.617Z,1.80
2018-02-07T19:27:52.113Z,1.80
2018-02-07T19:30:19.634Z,1.80
2018-02-07T19:32:47.889Z,1.80
2018-02-07T19:35:15.402Z,1.80
2018-02-07T19:37:42.897Z,1.80
2018-02-07T19:40:10.415Z,1.70
2018-02-07T19:42:37.913Z,1.70
2018-02-07T19:45:05.458Z,1.70
2018-02-07T19:47:32.977Z,1.70
2018-02-07T19:50:01.233Z,1.70
2018-02-07T19:52:29.517Z,1.70
2018-02-07T19:54:57.778Z,1.70
2018-02-07T19:57:25.293Z,1.70
2018-02-07T19:59:52.785Z,1.70
2018-02-07T20:02:20.298Z,1.70
2018-02-07T20:04:47.788Z,1.70
2018-02-07T20:07:15.311Z,1.60
2018-02-07T20:09:42.801Z,1.60
2018-02-07T20:12:10.301Z,1.60
2018-02-07T20:14:38.581Z,1.50
2018-02-07T20:17:06.865Z,1.50
2018-02-07T20:19:35.121Z,1.40
2018-02-07T20:22:02.642Z,1.40
2018-02-07T20:24:30.133Z,1.30
2018-02-07T20:26:57.640Z,1.30
2018-02-07T20:29:25.165Z,1.30
2018-02-07T20:31:53.421Z,1.20
2018-02-07T20:34:20.938Z,1.20
2018-02-07T20:36:48.434Z,1.30
2018-02-07T20:39:15.954Z,1.30
2018-02-07T20:41:43.462Z,1.20
2018-02-07T20:44:10.958Z,1.20
2018-02-07T20:46:38.469Z,1.20
2018-02-07T20:49:06.725Z,1.20
2018-02-07T20:51:34.242Z,1.20
2018-02-07T20:54:01.738Z,1.20
2018-02-07T20:56:29.233Z,1.10
2018-02-07T20:58:57.526Z,1.00
2018-02-07T21:01:25.786Z,1.00
2018-02-07T21:03:53.297Z,0.90
2018-02-07T21:06:20.792Z,0.90
2018-02-07T21:08:48.289Z,0.80
2018-02-07T21:11:15.806Z,0.80
2018-02-07T21:13:44.073Z,0.80
2018-02-07T21:16:11.596Z,0.70
2018-02-07T21:18:39.097Z,0.80
2018-02-07T21:21:06.598Z,0.70
2018-02-07T21:23:34.114Z,0.70
2018-02-07T21:26:01.610Z,0.70
2018-02-07T21:28:29.894Z,0.70
2018-02-07T21:30:57.390Z,0.70
2018-02-07T21:33:24.906Z,0.70
2018-02-07T21:35:52.393Z,0.60
2018-02-07T21:38:19.909Z,0.50
2018-02-07T21:40:48.173Z,0.60
2018-02-07T21:43:15.674Z,0.50
2018-02-07T21:45:43.194Z,0.60
2018-02-07T21:48:11.457Z,0.60
2018-02-07T21:50:38.971Z,0.60
2018-02-07T21:53:06.466Z,0.60
2018-02-07T21:55:33.982Z,0.60
2018-02-07T21:58:01.478Z,0.60
2018-02-07T22:00:28.993Z,0.60
2018-02-07T22:02:56.486Z,0.60
2018-02-07T22:05:24.002Z,0.60
2018-02-07T22:07:51.498Z,0.60
2018-02-07T22:10:19.014Z,0.60
2018-02-07T22:12:46.509Z,0.60
2018-02-07T22:15:14.026Z,0.60
2018-02-07T22:17:42.281Z,0.50
2018-02-07T22:20:09.777Z,0.50
2018-02-07T22:22:37.298Z,0.50
2018-02-07T22:25:04.790Z,0.60
2018-02-07T22:27:32.349Z,0.60
2018-02-07T22:30:00.589Z,0.60
2018-02-07T22:32:28.109Z,0.50
2018-02-07T22:34:55.597Z,0.60
2018-02-07T22:37:23.110Z,0.60
2018-02-07T22:39:50.610Z,0.50
2018-02-07T22:42:18.130Z,0.50
2018-02-07T22:44:45.630Z,0.50
2018-02-07T22:47:13.126Z,0.50
2018-02-07T22:49:40.983Z,0.50
2018-02-07T22:52:09.241Z,0.60
2018-02-07T22:54:36.762Z,0.60
2018-02-07T22:57:04.250Z,0.60
2018-02-07T22:59:32.548Z,0.60
2018-02-07T23:02:00.806Z,0.60
2018-02-07T23:04:28.322Z,0.60
2018-02-07T23:06:55.818Z,0.60
2018-02-07T23:09:23.338Z,0.60
2018-02-07T23:11:50.829Z,0.60
2018-02-07T23:14:18.350Z,0.60
2018-02-07T23:16:45.840Z,0.50
2018-02-07T23:19:13.349Z,0.50
2018-02-07T23:21:40.842Z,0.50
2018-02-07T23:24:08.358Z,0.50
2018-02-07T23:26:36.613Z,0.50
2018-02-07T23:29:04.109Z,0.50
2018-02-07T23:31:31.630Z,0.40
2018-02-07T23:33:59.885Z,0.50
2018-02-07T23:36:27.402Z,0.40
2018-02-07T23:38:54.897Z,0.40
2018-02-07T23:41:22.409Z,0.40
2018-02-07T23:43:49.902Z,0.40
2018-02-07T23:46:17.418Z,0.40
2018-02-07T23:48:45.674Z,0.30
2018-02-07T23:51:13.193Z,0.30
2018-02-07T23:53:40.693Z,0.30
2018-02-07T23:56:08.969Z,0.20
2018-02-07T23:58:36.462Z,0.20
